sensor_id;sensor_type;location;lat;lon;timestamp;P1;durP1;ratioP1;P2;durP2;ratioP2
7971;SDS011;4031;49.758;6.120;2023-12-22T00:01:12;4.67;;;1.67;;
7971;SDS011;4031;49.758;6.120;2023-12-22T00:03:41;3.53;;;2.03;;
7971;SDS011;4031;49.758;6.120;2023-12-22T00:06:07;1.33;;;1.03;;
7971;SDS011;4031;49.758;6.120;2023-12-22T00:08:33;1.97;;;1.10;;
7971;SDS011;4031;49.758;6.120;2023-12-22T00:10:59;2.57;;;1.13;;
7971;SDS011;4031;49.758;6.120;2023-12-22T00:13:25;9.50;;;1.30;;
7971;SDS011;4031;49.758;6.120;2023-12-22T00:15:50;2.70;;;1.77;;
7971;SDS011;4031;49.758;6.120;2023-12-22T00:18:16;2.37;;;1.50;;
7971;SDS011;4031;49.758;6.120;2023-12-22T00:20:42;3.70;;;1.10;;
7971;SDS011;4031;49.758;6.120;2023-12-22T00:23:08;1.27;;;1.17;;
7971;SDS011;4031;49.758;6.120;2023-12-22T00:25:33;6.80;;;2.07;;
7971;SDS011;4031;49.758;6.120;2023-12-22T00:27:59;2.10;;;1.43;;
7971;SDS011;4031;49.758;6.120;2023-12-22T00:30:25;3.13;;;1.10;;
7971;SDS011;4031;49.758;6.120;2023-12-22T00:32:50;2.93;;;1.40;;
7971;SDS011;4031;49.758;6.120;2023-12-22T00:35:16;6.33;;;2.10;;
7971;SDS011;4031;49.758;6.120;2023-12-22T00:37:42;5.50;;;1.73;;
7971;SDS011;4031;49.758;6.120;2023-12-22T00:40:08;2.40;;;1.97;;
7971;SDS011;4031;49.758;6.120;2023-12-22T00:42:34;5.20;;;1.43;;
7971;SDS011;4031;49.758;6.120;2023-12-22T00:45:00;3.27;;;1.20;;
7971;SDS011;4031;49.758;6.120;2023-12-22T00:47:26;3.83;;;1.47;;
7971;SDS011;4031;49.758;6.120;2023-12-22T00:49:53;5.43;;;2.07;;
7971;SDS011;4031;49.758;6.120;2023-12-22T00:52:19;4.10;;;1.40;;
7971;SDS011;4031;49.758;6.120;2023-12-22T00:54:44;3.13;;;1.37;;
7971;SDS011;4031;49.758;6.120;2023-12-22T00:57:10;9.80;;;2.17;;
7971;SDS011;4031;49.758;6.120;2023-12-22T00:59:37;7.93;;;1.87;;
7971;SDS011;4031;49.758;6.120;2023-12-22T01:02:03;8.03;;;1.10;;
7971;SDS011;4031;49.758;6.120;2023-12-22T01:04:29;6.23;;;1.93;;
7971;SDS011;4031;49.758;6.120;2023-12-22T01:06:54;4.93;;;2.17;;
7971;SDS011;4031;49.758;6.120;2023-12-22T01:09:20;4.27;;;1.20;;
7971;SDS011;4031;49.758;6.120;2023-12-22T01:11:46;8.57;;;1.50;;
7971;SDS011;4031;49.758;6.120;2023-12-22T01:14:12;5.57;;;1.10;;
7971;SDS011;4031;49.758;6.120;2023-12-22T01:16:39;1.90;;;1.23;;
7971;SDS011;4031;49.758;6.120;2023-12-22T01:19:05;3.63;;;1.53;;
7971;SDS011;4031;49.758;6.120;2023-12-22T01:21:30;4.90;;;1.37;;
7971;SDS011;4031;49.758;6.120;2023-12-22T01:23:56;4.67;;;2.00;;
7971;SDS011;4031;49.758;6.120;2023-12-22T01:26:23;2.83;;;1.40;;
7971;SDS011;4031;49.758;6.120;2023-12-22T01:28:50;5.73;;;1.67;;
7971;SDS011;4031;49.758;6.120;2023-12-22T01:31:16;2.70;;;1.77;;
7971;SDS011;4031;49.758;6.120;2023-12-22T01:33:42;5.53;;;1.83;;
7971;SDS011;4031;49.758;6.120;2023-12-22T01:36:07;2.50;;;1.30;;
7971;SDS011;4031;49.758;6.120;2023-12-22T01:38:33;5.50;;;2.43;;
7971;SDS011;4031;49.758;6.120;2023-12-22T01:40:59;1.83;;;1.43;;
7971;SDS011;4031;49.758;6.120;2023-12-22T01:43:24;6.33;;;1.93;;
7971;SDS011;4031;49.758;6.120;2023-12-22T01:45:52;2.87;;;1.00;;
7971;SDS011;4031;49.758;6.120;2023-12-22T01:48:22;7.07;;;2.40;;
7971;SDS011;4031;49.758;6.120;2023-12-22T01:50:52;3.53;;;1.70;;
7971;SDS011;4031;49.758;6.120;2023-12-22T01:53:20;4.00;;;1.33;;
7971;SDS011;4031;49.758;6.120;2023-12-22T01:55:47;2.60;;;1.00;;
7971;SDS011;4031;49.758;6.120;2023-12-22T01:58:14;5.23;;;1.77;;
7971;SDS011;4031;49.758;6.120;2023-12-22T02:00:40;6.70;;;1.60;;
7971;SDS011;4031;49.758;6.120;2023-12-22T02:03:06;3.27;;;0.97;;
7971;SDS011;4031;49.758;6.120;2023-12-22T02:05:33;2.60;;;1.03;;
7971;SDS011;4031;49.758;6.120;2023-12-22T02:07:59;9.40;;;2.20;;
7971;SDS011;4031;49.758;6.120;2023-12-22T02:10:25;4.87;;;2.10;;
7971;SDS011;4031;49.758;6.120;2023-12-22T02:12:50;5.60;;;1.70;;
7971;SDS011;4031;49.758;6.120;2023-12-22T02:15:16;10.67;;;4.43;;
7971;SDS011;4031;49.758;6.120;2023-12-22T02:17:49;4.97;;;2.47;;
7971;SDS011;4031;49.758;6.120;2023-12-22T02:20:31;0.93;;;0.80;;
7971;SDS011;4031;49.758;6.120;2023-12-22T02:22:57;1.67;;;1.57;;
7971;SDS011;4031;49.758;6.120;2023-12-22T02:25:23;2.87;;;1.23;;
7971;SDS011;4031;49.758;6.120;2023-12-22T02:27:49;4.93;;;1.80;;
7971;SDS011;4031;49.758;6.120;2023-12-22T02:30:24;5.20;;;1.30;;
7971;SDS011;4031;49.758;6.120;2023-12-22T02:32:59;4.93;;;1.87;;
7971;SDS011;4031;49.758;6.120;2023-12-22T02:35:28;3.53;;;1.27;;
7971;SDS011;4031;49.758;6.120;2023-12-22T02:37:56;5.47;;;3.03;;
7971;SDS011;4031;49.758;6.120;2023-12-22T02:40:23;3.40;;;1.47;;
7971;SDS011;4031;49.758;6.120;2023-12-22T02:42:51;4.33;;;1.30;;
7971;SDS011;4031;49.758;6.120;2023-12-22T02:45:18;5.70;;;1.37;;
7971;SDS011;4031;49.758;6.120;2023-12-22T02:47:45;1.40;;;1.20;;
7971;SDS011;4031;49.758;6.120;2023-12-22T02:50:11;3.50;;;1.37;;
7971;SDS011;4031;49.758;6.120;2023-12-22T02:52:40;8.27;;;1.73;;
7971;SDS011;4031;49.758;6.120;2023-12-22T02:55:05;5.43;;;1.37;;
7971;SDS011;4031;49.758;6.120;2023-12-22T02:57:31;5.17;;;1.77;;
7971;SDS011;4031;49.758;6.120;2023-12-22T02:59:57;7.17;;;2.80;;
7971;SDS011;4031;49.758;6.120;2023-12-22T03:02:23;10.17;;;2.60;;
7971;SDS011;4031;49.758;6.120;2023-12-22T03:04:49;10.77;;;1.77;;
7971;SDS011;4031;49.758;6.120;2023-12-22T03:07:15;7.90;;;2.73;;
7971;SDS011;4031;49.758;6.120;2023-12-22T03:09:41;7.23;;;2.57;;
7971;SDS011;4031;49.758;6.120;2023-12-22T03:12:08;1.03;;;1.03;;
7971;SDS011;4031;49.758;6.120;2023-12-22T03:14:34;3.37;;;1.60;;
7971;SDS011;4031;49.758;6.120;2023-12-22T03:17:01;6.77;;;1.63;;
7971;SDS011;4031;49.758;6.120;2023-12-22T03:19:31;6.17;;;2.40;;
7971;SDS011;4031;49.758;6.120;2023-12-22T03:21:57;7.60;;;1.90;;
7971;SDS011;4031;49.758;6.120;2023-12-22T03:24:24;3.23;;;1.53;;
7971;SDS011;4031;49.758;6.120;2023-12-22T03:26:51;6.17;;;1.93;;
7971;SDS011;4031;49.758;6.120;2023-12-22T03:29:17;9.67;;;2.53;;
7971;SDS011;4031;49.758;6.120;2023-12-22T03:31:44;4.87;;;2.70;;
7971;SDS011;4031;49.758;6.120;2023-12-22T03:34:10;4.87;;;1.73;;
7971;SDS011;4031;49.758;6.120;2023-12-22T03:36:37;11.30;;;2.50;;
7971;SDS011;4031;49.758;6.120;2023-12-22T03:39:02;7.37;;;1.33;;
7971;SDS011;4031;49.758;6.120;2023-12-22T03:41:29;3.40;;;2.07;;
7971;SDS011;4031;49.758;6.120;2023-12-22T03:43:55;11.50;;;2.33;;
7971;SDS011;4031;49.758;6.120;2023-12-22T03:46:21;13.73;;;3.00;;
7971;SDS011;4031;49.758;6.120;2023-12-22T03:48:48;3.57;;;1.73;;
7971;SDS011;4031;49.758;6.120;2023-12-22T03:51:15;4.10;;;1.60;;
7971;SDS011;4031;49.758;6.120;2023-12-22T03:53:41;13.83;;;3.43;;
7971;SDS011;4031;49.758;6.120;2023-12-22T03:56:07;10.47;;;3.27;;
7971;SDS011;4031;49.758;6.120;2023-12-22T03:58:34;9.43;;;2.77;;
7971;SDS011;4031;49.758;6.120;2023-12-22T04:01:00;6.80;;;2.60;;
7971;SDS011;4031;49.758;6.120;2023-12-22T04:03:26;5.40;;;1.27;;
7971;SDS011;4031;49.758;6.120;2023-12-22T04:05:52;5.37;;;2.20;;
7971;SDS011;4031;49.758;6.120;2023-12-22T04:08:18;7.70;;;2.80;;
7971;SDS011;4031;49.758;6.120;2023-12-22T04:10:46;9.40;;;2.57;;
7971;SDS011;4031;49.758;6.120;2023-12-22T04:13:12;6.53;;;1.50;;
7971;SDS011;4031;49.758;6.120;2023-12-22T04:15:38;9.77;;;2.33;;
7971;SDS011;4031;49.758;6.120;2023-12-22T04:18:04;1.90;;;0.90;;
7971;SDS011;4031;49.758;6.120;2023-12-22T04:20:29;2.50;;;0.90;;
7971;SDS011;4031;49.758;6.120;2023-12-22T04:22:56;3.37;;;0.93;;
7971;SDS011;4031;49.758;6.120;2023-12-22T04:25:22;2.93;;;0.73;;
7971;SDS011;4031;49.758;6.120;2023-12-22T04:27:49;1.67;;;0.40;;
7971;SDS011;4031;49.758;6.120;2023-12-22T04:30:15;4.50;;;0.93;;
7971;SDS011;4031;49.758;6.120;2023-12-22T04:32:41;3.23;;;0.70;;
7971;SDS011;4031;49.758;6.120;2023-12-22T04:35:07;1.90;;;0.70;;
7971;SDS011;4031;49.758;6.120;2023-12-22T04:37:33;1.03;;;0.63;;
7971;SDS011;4031;49.758;6.120;2023-12-22T04:39:59;1.97;;;0.70;;
7971;SDS011;4031;49.758;6.120;2023-12-22T04:42:25;3.00;;;1.00;;
7971;SDS011;4031;49.758;6.120;2023-12-22T04:44:51;2.83;;;1.10;;
7971;SDS011;4031;49.758;6.120;2023-12-22T04:47:17;4.60;;;1.07;;
7971;SDS011;4031;49.758;6.120;2023-12-22T04:49:43;3.70;;;0.77;;
7971;SDS011;4031;49.758;6.120;2023-12-22T04:52:10;1.93;;;1.00;;
7971;SDS011;4031;49.758;6.120;2023-12-22T04:54:36;1.70;;;1.00;;
7971;SDS011;4031;49.758;6.120;2023-12-22T04:57:03;3.03;;;1.50;;
7971;SDS011;4031;49.758;6.120;2023-12-22T04:59:29;5.80;;;1.30;;
7971;SDS011;4031;49.758;6.120;2023-12-22T05:01:55;9.13;;;1.60;;
7971;SDS011;4031;49.758;6.120;2023-12-22T05:04:21;2.10;;;1.17;;
7971;SDS011;4031;49.758;6.120;2023-12-22T05:06:47;1.97;;;0.93;;
7971;SDS011;4031;49.758;6.120;2023-12-22T05:09:13;5.37;;;1.20;;
7971;SDS011;4031;49.758;6.120;2023-12-22T05:11:40;2.83;;;0.97;;
7971;SDS011;4031;49.758;6.120;2023-12-22T05:14:05;1.63;;;1.00;;
7971;SDS011;4031;49.758;6.120;2023-12-22T05:16:31;8.00;;;1.40;;
7971;SDS011;4031;49.758;6.120;2023-12-22T05:18:57;3.33;;;1.20;;
7971;SDS011;4031;49.758;6.120;2023-12-22T05:21:24;3.77;;;1.33;;
7971;SDS011;4031;49.758;6.120;2023-12-22T05:23:49;1.70;;;0.80;;
7971;SDS011;4031;49.758;6.120;2023-12-22T05:26:16;4.00;;;1.37;;
7971;SDS011;4031;49.758;6.120;2023-12-22T05:28:43;2.30;;;0.80;;
7971;SDS011;4031;49.758;6.120;2023-12-22T05:31:09;5.20;;;1.13;;
7971;SDS011;4031;49.758;6.120;2023-12-22T05:33:35;2.80;;;1.13;;
7971;SDS011;4031;49.758;6.120;2023-12-22T05:36:00;1.63;;;0.80;;
7971;SDS011;4031;49.758;6.120;2023-12-22T05:38:26;3.57;;;1.13;;
7971;SDS011;4031;49.758;6.120;2023-12-22T05:40:52;4.27;;;1.37;;
7971;SDS011;4031;49.758;6.120;2023-12-22T05:43:17;6.67;;;0.97;;
7971;SDS011;4031;49.758;6.120;2023-12-22T05:45:43;4.10;;;1.10;;
7971;SDS011;4031;49.758;6.120;2023-12-22T05:48:09;2.87;;;1.10;;
7971;SDS011;4031;49.758;6.120;2023-12-22T05:50:35;3.03;;;1.03;;
7971;SDS011;4031;49.758;6.120;2023-12-22T05:53:00;3.90;;;1.37;;
7971;SDS011;4031;49.758;6.120;2023-12-22T05:55:26;4.93;;;1.53;;
7971;SDS011;4031;49.758;6.120;2023-12-22T05:57:52;5.30;;;1.00;;
7971;SDS011;4031;49.758;6.120;2023-12-22T06:00:18;3.60;;;1.17;;
7971;SDS011;4031;49.758;6.120;2023-12-22T06:02:44;1.90;;;1.00;;
7971;SDS011;4031;49.758;6.120;2023-12-22T06:05:10;1.03;;;0.80;;
7971;SDS011;4031;49.758;6.120;2023-12-22T06:07:36;5.47;;;1.10;;
7971;SDS011;4031;49.758;6.120;2023-12-22T06:10:01;2.83;;;1.57;;
7971;SDS011;4031;49.758;6.120;2023-12-22T06:12:27;3.50;;;1.40;;
7971;SDS011;4031;49.758;6.120;2023-12-22T06:14:53;6.37;;;1.87;;
7971;SDS011;4031;49.758;6.120;2023-12-22T06:17:19;4.30;;;1.83;;
7971;SDS011;4031;49.758;6.120;2023-12-22T06:19:44;2.97;;;1.57;;
7971;SDS011;4031;49.758;6.120;2023-12-22T06:22:10;4.50;;;1.87;;
7971;SDS011;4031;49.758;6.120;2023-12-22T06:24:36;2.50;;;1.57;;
7971;SDS011;4031;49.758;6.120;2023-12-22T06:27:01;3.17;;;1.50;;
7971;SDS011;4031;49.758;6.120;2023-12-22T06:29:27;14.90;;;2.00;;
7971;SDS011;4031;49.758;6.120;2023-12-22T06:31:53;5.10;;;1.77;;
7971;SDS011;4031;49.758;6.120;2023-12-22T06:34:19;9.23;;;2.30;;
7971;SDS011;4031;49.758;6.120;2023-12-22T06:36:45;15.83;;;3.40;;
7971;SDS011;4031;49.758;6.120;2023-12-22T06:39:10;7.53;;;2.30;;
7971;SDS011;4031;49.758;6.120;2023-12-22T06:41:36;15.60;;;2.87;;
7971;SDS011;4031;49.758;6.120;2023-12-22T06:44:02;17.67;;;3.27;;
7971;SDS011;4031;49.758;6.120;2023-12-22T06:46:28;17.33;;;4.00;;
7971;SDS011;4031;49.758;6.120;2023-12-22T06:48:55;15.60;;;3.80;;
7971;SDS011;4031;49.758;6.120;2023-12-22T06:51:23;12.30;;;2.93;;
7971;SDS011;4031;49.758;6.120;2023-12-22T06:53:55;11.47;;;3.17;;
7971;SDS011;4031;49.758;6.120;2023-12-22T06:56:22;17.70;;;4.30;;
7971;SDS011;4031;49.758;6.120;2023-12-22T06:58:49;8.13;;;2.90;;
7971;SDS011;4031;49.758;6.120;2023-12-22T07:01:21;15.23;;;3.63;;
7971;SDS011;4031;49.758;6.120;2023-12-22T07:03:50;6.77;;;2.27;;
7971;SDS011;4031;49.758;6.120;2023-12-22T07:06:17;16.60;;;3.40;;
7971;SDS011;4031;49.758;6.120;2023-12-22T07:08:56;8.87;;;2.40;;
7971;SDS011;4031;49.758;6.120;2023-12-22T07:11:38;12.27;;;3.50;;
7971;SDS011;4031;49.758;6.120;2023-12-22T07:14:04;17.03;;;3.47;;
7971;SDS011;4031;49.758;6.120;2023-12-22T07:16:30;13.20;;;3.00;;
7971;SDS011;4031;49.758;6.120;2023-12-22T07:18:57;15.70;;;5.00;;
7971;SDS011;4031;49.758;6.120;2023-12-22T07:21:23;12.57;;;3.97;;
7971;SDS011;4031;49.758;6.120;2023-12-22T07:23:49;8.80;;;2.70;;
7971;SDS011;4031;49.758;6.120;2023-12-22T07:26:15;14.80;;;3.37;;
7971;SDS011;4031;49.758;6.120;2023-12-22T07:28:41;9.80;;;4.10;;
7971;SDS011;4031;49.758;6.120;2023-12-22T07:31:06;20.73;;;3.53;;
7971;SDS011;4031;49.758;6.120;2023-12-22T07:33:32;8.23;;;2.87;;
7971;SDS011;4031;49.758;6.120;2023-12-22T07:35:58;14.33;;;3.97;;
7971;SDS011;4031;49.758;6.120;2023-12-22T07:38:24;5.37;;;2.40;;
7971;SDS011;4031;49.758;6.120;2023-12-22T07:40:50;10.50;;;3.47;;
7971;SDS011;4031;49.758;6.120;2023-12-22T07:43:15;16.37;;;4.37;;
7971;SDS011;4031;49.758;6.120;2023-12-22T07:45:41;13.40;;;2.93;;
7971;SDS011;4031;49.758;6.120;2023-12-22T07:48:07;10.40;;;2.93;;
7971;SDS011;4031;49.758;6.120;2023-12-22T07:50:33;10.40;;;3.60;;
7971;SDS011;4031;49.758;6.120;2023-12-22T07:52:59;11.63;;;3.40;;
7971;SDS011;4031;49.758;6.120;2023-12-22T07:55:25;15.17;;;3.60;;
7971;SDS011;4031;49.758;6.120;2023-12-22T07:57:50;14.57;;;3.57;;
7971;SDS011;4031;49.758;6.120;2023-12-22T08:00:17;6.60;;;2.07;;
7971;SDS011;4031;49.758;6.120;2023-12-22T08:02:43;15.60;;;3.40;;
7971;SDS011;4031;49.758;6.120;2023-12-22T08:05:09;10.50;;;2.87;;
7971;SDS011;4031;49.758;6.120;2023-12-22T08:07:35;7.40;;;3.50;;
7971;SDS011;4031;49.758;6.120;2023-12-22T08:10:01;22.07;;;3.60;;
7971;SDS011;4031;49.758;6.120;2023-12-22T08:12:29;14.40;;;2.83;;
7971;SDS011;4031;49.758;6.120;2023-12-22T08:14:57;9.13;;;2.50;;
7971;SDS011;4031;49.758;6.120;2023-12-22T08:17:23;11.10;;;2.50;;
7971;SDS011;4031;49.758;6.120;2023-12-22T08:19:49;13.17;;;3.73;;
7971;SDS011;4031;49.758;6.120;2023-12-22T08:22:15;7.33;;;2.37;;
7971;SDS011;4031;49.758;6.120;2023-12-22T08:24:41;16.23;;;2.80;;
7971;SDS011;4031;49.758;6.120;2023-12-22T08:27:06;4.63;;;2.37;;
7971;SDS011;4031;49.758;6.120;2023-12-22T08:29:33;14.13;;;3.23;;
7971;SDS011;4031;49.758;6.120;2023-12-22T08:31:59;14.30;;;2.20;;
7971;SDS011;4031;49.758;6.120;2023-12-22T08:34:25;14.40;;;3.37;;
7971;SDS011;4031;49.758;6.120;2023-12-22T08:36:52;7.83;;;2.70;;
7971;SDS011;4031;49.758;6.120;2023-12-22T08:39:18;9.80;;;2.70;;
7971;SDS011;4031;49.758;6.120;2023-12-22T08:41:44;9.07;;;2.70;;
7971;SDS011;4031;49.758;6.120;2023-12-22T08:44:10;6.77;;;2.50;;
7971;SDS011;4031;49.758;6.120;2023-12-22T08:46:39;10.30;;;3.20;;
7971;SDS011;4031;49.758;6.120;2023-12-22T08:49:05;8.10;;;3.00;;
7971;SDS011;4031;49.758;6.120;2023-12-22T08:51:32;9.97;;;2.77;;
7971;SDS011;4031;49.758;6.120;2023-12-22T08:53:59;7.20;;;2.23;;
7971;SDS011;4031;49.758;6.120;2023-12-22T08:56:24;6.47;;;2.07;;
7971;SDS011;4031;49.758;6.120;2023-12-22T08:58:51;8.03;;;1.93;;
7971;SDS011;4031;49.758;6.120;2023-12-22T09:01:20;8.97;;;2.00;;
7971;SDS011;4031;49.758;6.120;2023-12-22T09:03:47;13.20;;;2.10;;
7971;SDS011;4031;49.758;6.120;2023-12-22T09:06:20;3.10;;;1.80;;
7971;SDS011;4031;49.758;6.120;2023-12-22T09:08:47;4.73;;;1.83;;
7971;SDS011;4031;49.758;6.120;2023-12-22T09:11:15;4.10;;;1.80;;
7971;SDS011;4031;49.758;6.120;2023-12-22T09:13:42;11.53;;;2.70;;
7971;SDS011;4031;49.758;6.120;2023-12-22T09:16:09;5.30;;;1.90;;
7971;SDS011;4031;49.758;6.120;2023-12-22T09:18:35;3.63;;;2.40;;
7971;SDS011;4031;49.758;6.120;2023-12-22T09:21:01;8.97;;;2.83;;
7971;SDS011;4031;49.758;6.120;2023-12-22T09:23:28;11.07;;;2.40;;
7971;SDS011;4031;49.758;6.120;2023-12-22T09:25:54;4.70;;;2.00;;
7971;SDS011;4031;49.758;6.120;2023-12-22T09:28:20;4.93;;;1.60;;
7971;SDS011;4031;49.758;6.120;2023-12-22T09:30:46;10.80;;;2.40;;
7971;SDS011;4031;49.758;6.120;2023-12-22T09:33:12;4.60;;;1.30;;
7971;SDS011;4031;49.758;6.120;2023-12-22T09:35:38;2.73;;;1.40;;
7971;SDS011;4031;49.758;6.120;2023-12-22T09:38:06;2.90;;;1.23;;
7971;SDS011;4031;49.758;6.120;2023-12-22T09:40:34;4.20;;;1.27;;
7971;SDS011;4031;49.758;6.120;2023-12-22T09:43:01;6.10;;;1.20;;
7971;SDS011;4031;49.758;6.120;2023-12-22T09:45:30;2.20;;;1.10;;
7971;SDS011;4031;49.758;6.120;2023-12-22T09:47:58;2.73;;;1.30;;
7971;SDS011;4031;49.758;6.120;2023-12-22T09:50:26;5.80;;;1.47;;
7971;SDS011;4031;49.758;6.120;2023-12-22T09:52:52;4.17;;;1.07;;
7971;SDS011;4031;49.758;6.120;2023-12-22T09:55:20;4.63;;;1.43;;
7971;SDS011;4031;49.758;6.120;2023-12-22T09:57:47;2.30;;;0.80;;
7971;SDS011;4031;49.758;6.120;2023-12-22T10:00:13;2.30;;;0.77;;
7971;SDS011;4031;49.758;6.120;2023-12-22T10:02:40;4.27;;;1.27;;
7971;SDS011;4031;49.758;6.120;2023-12-22T10:05:10;3.37;;;0.90;;
7971;SDS011;4031;49.758;6.120;2023-12-22T10:07:38;9.43;;;1.00;;
7971;SDS011;4031;49.758;6.120;2023-12-22T10:10:06;1.17;;;1.07;;
7971;SDS011;4031;49.758;6.120;2023-12-22T10:12:34;1.17;;;0.70;;
7971;SDS011;4031;49.758;6.120;2023-12-22T10:15:01;1.33;;;0.83;;
7971;SDS011;4031;49.758;6.120;2023-12-22T10:17:28;2.07;;;1.10;;
7971;SDS011;4031;49.758;6.120;2023-12-22T10:19:55;2.30;;;1.00;;
7971;SDS011;4031;49.758;6.120;2023-12-22T10:22:21;2.77;;;1.00;;
7971;SDS011;4031;49.758;6.120;2023-12-22T10:24:49;1.23;;;0.87;;
7971;SDS011;4031;49.758;6.120;2023-12-22T10:27:18;0.50;;;0.50;;
7971;SDS011;4031;49.758;6.120;2023-12-22T10:29:48;2.20;;;1.07;;
7971;SDS011;4031;49.758;6.120;2023-12-22T10:32:15;0.50;;;0.40;;
7971;SDS011;4031;49.758;6.120;2023-12-22T10:34:41;1.07;;;1.00;;
7971;SDS011;4031;49.758;6.120;2023-12-22T10:37:07;0.60;;;0.57;;
7971;SDS011;4031;49.758;6.120;2023-12-22T10:39:35;1.00;;;0.80;;
7971;SDS011;4031;49.758;6.120;2023-12-22T10:42:02;0.97;;;0.60;;
7971;SDS011;4031;49.758;6.120;2023-12-22T10:44:28;1.03;;;0.70;;
7971;SDS011;4031;49.758;6.120;2023-12-22T10:46:55;0.80;;;0.50;;
7971;SDS011;4031;49.758;6.120;2023-12-22T10:49:21;0.63;;;0.63;;
7971;SDS011;4031;49.758;6.120;2023-12-22T10:51:48;1.80;;;1.00;;
7971;SDS011;4031;49.758;6.120;2023-12-22T10:54:14;1.87;;;0.73;;
7971;SDS011;4031;49.758;6.120;2023-12-22T10:56:41;1.67;;;0.57;;
7971;SDS011;4031;49.758;6.120;2023-12-22T10:59:07;0.93;;;0.70;;
7971;SDS011;4031;49.758;6.120;2023-12-22T11:01:35;0.87;;;0.50;;
7971;SDS011;4031;49.758;6.120;2023-12-22T11:04:06;0.50;;;0.50;;
7971;SDS011;4031;49.758;6.120;2023-12-22T11:06:35;1.60;;;0.60;;
7971;SDS011;4031;49.758;6.120;2023-12-22T11:09:06;1.23;;;0.60;;
7971;SDS011;4031;49.758;6.120;2023-12-22T11:11:34;1.13;;;0.60;;
7971;SDS011;4031;49.758;6.120;2023-12-22T11:14:04;0.90;;;0.83;;
7971;SDS011;4031;49.758;6.120;2023-12-22T11:16:32;0.63;;;0.60;;
7971;SDS011;4031;49.758;6.120;2023-12-22T11:19:03;0.60;;;0.40;;
7971;SDS011;4031;49.758;6.120;2023-12-22T11:21:29;0.70;;;0.57;;
7971;SDS011;4031;49.758;6.120;2023-12-22T11:23:56;0.60;;;0.50;;
7971;SDS011;4031;49.758;6.120;2023-12-22T11:26:23;2.30;;;0.70;;
7971;SDS011;4031;49.758;6.120;2023-12-22T11:28:51;1.60;;;0.77;;
7971;SDS011;4031;49.758;6.120;2023-12-22T11:31:17;1.17;;;0.77;;
7971;SDS011;4031;49.758;6.120;2023-12-22T11:33:45;0.70;;;0.70;;
7971;SDS011;4031;49.758;6.120;2023-12-22T11:36:16;0.63;;;0.47;;
7971;SDS011;4031;49.758;6.120;2023-12-22T11:38:46;0.90;;;0.77;;
7971;SDS011;4031;49.758;6.120;2023-12-22T11:41:19;1.03;;;0.93;;
7971;SDS011;4031;49.758;6.120;2023-12-22T11:43:50;0.50;;;0.50;;
7971;SDS011;4031;49.758;6.120;2023-12-22T11:46:17;2.00;;;1.10;;
7971;SDS011;4031;49.758;6.120;2023-12-22T11:48:49;1.23;;;0.70;;
7971;SDS011;4031;49.758;6.120;2023-12-22T11:51:17;1.80;;;0.80;;
7971;SDS011;4031;49.758;6.120;2023-12-22T11:53:44;0.97;;;0.77;;
7971;SDS011;4031;49.758;6.120;2023-12-22T11:56:11;1.63;;;0.90;;
7971;SDS011;4031;49.758;6.120;2023-12-22T12:01:18;1.37;;;1.23;;
7971;SDS011;4031;49.758;6.120;2023-12-22T12:03:57;2.33;;;1.00;;
7971;SDS011;4031;49.758;6.120;2023-12-22T12:08:54;0.80;;;0.80;;
7971;SDS011;4031;49.758;6.120;2023-12-22T12:14:21;2.70;;;1.10;;
7971;SDS011;4031;49.758;6.120;2023-12-22T12:16:48;2.13;;;0.87;;
7971;SDS011;4031;49.758;6.120;2023-12-22T12:19:14;1.53;;;1.00;;
7971;SDS011;4031;49.758;6.120;2023-12-22T12:21:40;1.73;;;0.87;;
7971;SDS011;4031;49.758;6.120;2023-12-22T12:24:06;1.10;;;0.93;;
7971;SDS011;4031;49.758;6.120;2023-12-22T12:26:32;1.10;;;0.80;;
7971;SDS011;4031;49.758;6.120;2023-12-22T12:28:59;0.80;;;0.60;;
7971;SDS011;4031;49.758;6.120;2023-12-22T12:31:37;1.50;;;0.73;;
7971;SDS011;4031;49.758;6.120;2023-12-22T12:34:03;0.50;;;0.50;;
7971;SDS011;4031;49.758;6.120;2023-12-22T12:36:30;1.03;;;0.70;;
7971;SDS011;4031;49.758;6.120;2023-12-22T12:39:07;1.53;;;0.70;;
7971;SDS011;4031;49.758;6.120;2023-12-22T12:41:35;1.20;;;0.83;;
7971;SDS011;4031;49.758;6.120;2023-12-22T12:44:06;2.53;;;0.70;;
7971;SDS011;4031;49.758;6.120;2023-12-22T12:46:36;0.90;;;0.67;;
7971;SDS011;4031;49.758;6.120;2023-12-22T12:49:10;1.60;;;0.90;;
7971;SDS011;4031;49.758;6.120;2023-12-22T12:51:44;1.03;;;0.70;;
7971;SDS011;4031;49.758;6.120;2023-12-22T12:54:12;1.07;;;0.70;;
7971;SDS011;4031;49.758;6.120;2023-12-22T12:56:39;1.10;;;1.00;;
7971;SDS011;4031;49.758;6.120;2023-12-22T12:59:12;0.60;;;0.60;;
7971;SDS011;4031;49.758;6.120;2023-12-22T13:01:44;2.30;;;0.97;;
7971;SDS011;4031;49.758;6.120;2023-12-22T13:04:13;1.30;;;1.20;;
7971;SDS011;4031;49.758;6.120;2023-12-22T13:06:46;0.80;;;0.70;;
7971;SDS011;4031;49.758;6.120;2023-12-22T13:09:16;2.50;;;1.00;;
7971;SDS011;4031;49.758;6.120;2023-12-22T13:11:45;1.60;;;0.87;;
7971;SDS011;4031;49.758;6.120;2023-12-22T13:14:11;4.73;;;0.93;;
7971;SDS011;4031;49.758;6.120;2023-12-22T13:16:47;0.70;;;0.57;;
7971;SDS011;4031;49.758;6.120;2023-12-22T13:19:13;1.90;;;0.90;;
7971;SDS011;4031;49.758;6.120;2023-12-22T13:21:39;2.23;;;0.63;;
7971;SDS011;4031;49.758;6.120;2023-12-22T13:24:12;1.70;;;0.70;;
7971;SDS011;4031;49.758;6.120;2023-12-22T13:26:42;1.20;;;1.07;;
7971;SDS011;4031;49.758;6.120;2023-12-22T13:29:09;0.80;;;0.50;;
7971;SDS011;4031;49.758;6.120;2023-12-22T13:31:37;1.33;;;0.70;;
7971;SDS011;4031;49.758;6.120;2023-12-22T13:34:12;1.13;;;0.90;;
7971;SDS011;4031;49.758;6.120;2023-12-22T13:36:39;0.77;;;0.60;;
7971;SDS011;4031;49.758;6.120;2023-12-22T13:39:07;0.80;;;0.60;;
7971;SDS011;4031;49.758;6.120;2023-12-22T13:41:34;2.60;;;0.53;;
7971;SDS011;4031;49.758;6.120;2023-12-22T13:44:10;1.33;;;1.13;;
7971;SDS011;4031;49.758;6.120;2023-12-22T13:46:37;1.17;;;0.60;;
7971;SDS011;4031;49.758;6.120;2023-12-22T13:49:07;1.43;;;0.83;;
7971;SDS011;4031;49.758;6.120;2023-12-22T13:51:42;1.13;;;0.70;;
7971;SDS011;4031;49.758;6.120;2023-12-22T13:54:10;2.40;;;0.93;;
7971;SDS011;4031;49.758;6.120;2023-12-22T13:56:36;0.50;;;0.50;;
7971;SDS011;4031;49.758;6.120;2023-12-22T13:59:05;2.20;;;0.87;;
7971;SDS011;4031;49.758;6.120;2023-12-22T14:01:31;1.97;;;0.60;;
7971;SDS011;4031;49.758;6.120;2023-12-22T14:03:58;0.73;;;0.50;;
7971;SDS011;4031;49.758;6.120;2023-12-22T14:06:27;0.60;;;0.50;;
7971;SDS011;4031;49.758;6.120;2023-12-22T14:08:54;0.50;;;0.50;;
7971;SDS011;4031;49.758;6.120;2023-12-22T14:11:20;0.73;;;0.50;;
7971;SDS011;4031;49.758;6.120;2023-12-22T14:13:47;1.53;;;0.60;;
7971;SDS011;4031;49.758;6.120;2023-12-22T14:16:14;0.60;;;0.60;;
7971;SDS011;4031;49.758;6.120;2023-12-22T14:18:40;0.70;;;0.50;;
7971;SDS011;4031;49.758;6.120;2023-12-22T14:21:07;0.60;;;0.50;;
7971;SDS011;4031;49.758;6.120;2023-12-22T14:23:33;0.80;;;0.60;;
7971;SDS011;4031;49.758;6.120;2023-12-22T14:25:59;0.70;;;0.70;;
7971;SDS011;4031;49.758;6.120;2023-12-22T14:28:24;0.80;;;0.80;;
7971;SDS011;4031;49.758;6.120;2023-12-22T14:30:50;0.70;;;0.60;;
7971;SDS011;4031;49.758;6.120;2023-12-22T14:33:16;0.60;;;0.60;;
7971;SDS011;4031;49.758;6.120;2023-12-22T14:35:42;1.43;;;0.70;;
7971;SDS011;4031;49.758;6.120;2023-12-22T14:38:07;0.80;;;0.70;;
7971;SDS011;4031;49.758;6.120;2023-12-22T14:40:34;0.63;;;0.63;;
7971;SDS011;4031;49.758;6.120;2023-12-22T14:42:59;0.73;;;0.73;;
7971;SDS011;4031;49.758;6.120;2023-12-22T14:45:27;2.57;;;0.80;;
7971;SDS011;4031;49.758;6.120;2023-12-22T14:47:53;3.90;;;0.90;;
7971;SDS011;4031;49.758;6.120;2023-12-22T14:50:19;2.30;;;0.90;;
7971;SDS011;4031;49.758;6.120;2023-12-22T14:52:45;0.90;;;0.70;;
7971;SDS011;4031;49.758;6.120;2023-12-22T14:55:11;0.60;;;0.60;;
7971;SDS011;4031;49.758;6.120;2023-12-22T14:57:37;0.90;;;0.90;;
7971;SDS011;4031;49.758;6.120;2023-12-22T15:00:03;1.40;;;0.80;;
7971;SDS011;4031;49.758;6.120;2023-12-22T15:02:30;1.37;;;0.67;;
7971;SDS011;4031;49.758;6.120;2023-12-22T15:04:56;0.83;;;0.70;;
7971;SDS011;4031;49.758;6.120;2023-12-22T15:07:22;1.80;;;1.33;;
7971;SDS011;4031;49.758;6.120;2023-12-22T15:09:48;1.33;;;0.63;;
7971;SDS011;4031;49.758;6.120;2023-12-22T15:12:16;0.53;;;0.53;;
7971;SDS011;4031;49.758;6.120;2023-12-22T15:14:43;0.70;;;0.70;;
7971;SDS011;4031;49.758;6.120;2023-12-22T15:17:12;0.70;;;0.70;;
7971;SDS011;4031;49.758;6.120;2023-12-22T15:19:39;2.10;;;0.50;;